Terminal Aerodrome Forecast
Issued by NWS

Home | Current Version | Previous Version | Text Only | Print | Product List | Glossary On
Versions: 1 2 3 4 5 6 7 8 9 10 11 12 13 14 15 16 17 18
000
FTUS44 KTSA 240500 AAA
TAFXNA
TAF AMD
KXNA 240541Z 2406/2506 24003KT P6SM SCT050
      TEMPO 2406/2409 3/4SM BR
     FM240900 00000KT 4SM BR SCT050
      TEMPO 2409/2413 1SM BR BKN003
     FM241500 20008KT P6SM SCT250
     FM250000 22003KT P6SM SKC=

USA.gov is the U.S. government's official web portal to all federal, state and local government web resources and services.